Hazel Crest, IL

11:47 AM CDT on May 06, 2015 (GMT -0500)
Chicago-Midway | | Change Station
CLOSE
Current Station
Airport
Location: Chicago Midway,
Elevation: 623 ft
Nearby Weather Stations

Elev 623 ft 41.78 °N, 87.76 °W | Updated 54 minutes ago

Mostly Cloudy
Mostly Cloudy
66 °F
Feels Like 66 °F
N
6
Wind Variable Wind from South

Today
High -- | Low -- °F
--% Chance of Precip.
Yesterday
High -- | Low -- °F
Precip. -- in
5:41 AM 7:53 PM
Waning Gibbous, 93% visible
Pressure 30.17 in
Visibility 3.0 miles
Clouds Few 900 ft
Scattered Clouds 11000 ft
Dew Point 58 °F
Humidity 75%
Rainfall 0.00 in
Snow Depth Not available.
UV 7 out of 12
Pollen 7.80 out of 12
Air Quality Not available.
Flu Activity Local Activity
METAR KMDW 061553Z 18005KT 3SM HZ FEW009 SCT110 19/14 A3017 RMK AO2 SLP216 T01890144

More Conditions Fewer Conditions

Pressure 30.17 in
Visibility 3.0 miles
Clouds Few 900 ft
Scattered Clouds 11000 ft
Dew Point 58 °F
Humidity 75%
Rainfall 0.00 in
Snow Depth Not available.
UV 7 out of 12
Pollen 7.80 out of 12
Air Quality Not available.
Flu Activity Local Activity
METAR KMDW 061553Z 18005KT 3SM HZ FEW009 SCT110 19/14 A3017 RMK AO2 SLP216 T01890144

More Conditions Fewer Conditions

10-Day Weather Forecast

Almanac

Astronomy

May. 06, 2015 Rise Set
Actual Time
Civil Twilight
Nautical Twilight
Astronomical Twilight
Moon
Length of Visible Light
Length of Day
Tomorrow will be .
, % of the Moon is Illuminated

Today's Extremes

State Highs State Lows

Community

WunderPhotos

Upload Photos

1,818,949 photos uploaded!

WunderBlogs® & News

Nearby

Air Quality

  Air Quality AQ Index Pollutant
Not available.

Snow Depth

Station Depth Elevation

Earthquake Activity

City Distance Mag. Time & Date
Minimum magnitude displayed is 2.5.

Coastal Water Temperatures

Place Temperature

Stations

Nearby Weather Stations

Station Location Temp. Windchill Dew Point Humidity Wind Precip. Elev Updated Type